Time;durP1;ratioP1;P1;durP2;ratioP2;P2;SDS_P1;SDS_P2;PMS_P1;PMS_P2;Temp;Humidity;BMP_temperature;BMP_pressure;BME280_temperature;BME280_humidity;BME280_pressure;Samples;Min_cycle;Max_cycle;Signal;HPM_P1;HPM_P2
2022/11/26 00:01:22;;;;;;;39.38;15.28;;;;;;;3.46;88.32;99836.80;1666105;84;21019;-78
2022/11/26 00:03:51;;;;;;;41.23;17.27;;;;;;;3.37;88.18;99840.50;1665355;84;21043;-78
2022/11/26 00:06:30;;;;;;;30.88;14.15;;;;;;;3.28;88.24;99836.09;1665072;84;21043;-78
2022/11/26 00:08:58;;;;;;;37.45;14.85;;;;;;;3.24;88.43;99846.28;1657910;85;21662;-78
2022/11/26 00:11:26;;;;;;;33.25;14.73;;;;;;;3.09;88.58;99842.62;1658124;85;21071;-79
2022/11/26 00:13:54;;;;;;;36.58;15.88;;;;;;;3.05;88.63;99843.83;1657748;85;21546;-77
2022/11/26 00:16:21;;;;;;;35.78;14.98;;;;;;;3.08;88.93;99849.86;1657768;85;21457;-77
2022/11/26 00:18:49;;;;;;;45.83;15.72;;;;;;;3.13;89.01;99855.95;1657658;85;21606;-78
2022/11/26 00:21:23;;;;;;;36.42;14.05;;;;;;;3.17;89.19;99858.16;1657763;85;21986;-79
2022/11/26 00:23:52;;;;;;;40.12;14.35;;;;;;;3.22;89.23;99853.95;1658797;85;21631;-78
2022/11/26 00:26:22;;;;;;;34.48;12.75;;;;;;;3.22;88.91;99860.38;1659099;85;21414;-78
2022/11/26 00:28:58;;;;;;;37.25;13.48;;;;;;;3.23;88.68;99867.27;1658680;85;21023;-77
2022/11/26 00:31:28;;;;;;;27.85;12.37;;;;;;;3.22;88.32;99867.23;1658947;85;21014;-77
2022/11/26 00:33:55;;;;;;;29.48;11.30;;;;;;;3.17;88.27;99869.73;1659364;85;21815;-77
2022/11/26 00:36:28;;;;;;;29.90;12.30;;;;;;;3.16;88.19;99868.88;1658740;85;21055;-77
2022/11/26 00:39:07;;;;;;;26.60;11.28;;;;;;;3.16;87.91;99865.41;1659473;85;21037;-78
2022/11/26 00:41:37;;;;;;;26.15;12.25;;;;;;;3.17;88.03;99871.02;1658557;85;21074;-78
2022/11/26 00:44:23;;;;;;;30.60;11.95;;;;;;;3.17;88.07;99877.01;1659310;85;20988;-77
2022/11/26 00:46:51;;;;;;;30.32;12.23;;;;;;;3.23;88.29;99880.54;1658789;85;21019;-77
2022/11/26 00:49:19;;;;;;;29.77;11.83;;;;;;;3.24;88.06;99886.96;1659942;85;21042;-78
2022/11/26 00:51:47;;;;;;;27.02;10.80;;;;;;;3.25;88.29;99880.14;1658977;85;21034;-78
2022/11/26 00:54:17;;;;;;;24.47;11.88;;;;;;;3.28;88.44;99884.03;1660028;85;20999;-78
2022/11/26 00:56:47;;;;;;;28.87;12.13;;;;;;;3.30;88.13;99887.09;1658973;85;21551;-77
2022/11/26 00:59:21;;;;;;;25.62;11.48;;;;;;;3.31;87.99;99891.81;1658212;85;21058;-78
2022/11/26 01:01:49;;;;;;;26.52;10.72;;;;;;;3.25;87.82;99882.28;1658574;85;21028;-77
2022/11/26 01:04:16;;;;;;;21.57;9.23;;;;;;;3.25;88.12;99882.28;1659408;85;21492;-78
2022/11/26 01:06:45;;;;;;;21.90;9.60;;;;;;;3.23;88.20;99885.25;1657005;85;21072;-78
2022/11/26 01:09:20;;;;;;;21.25;9.38;;;;;;;3.29;88.46;99885.78;1639633;86;21509;-76
2022/11/26 01:11:47;;;;;;;20.25;9.10;;;;;;;3.34;88.50;99886.31;1623737;86;21011;-78
2022/11/26 01:14:18;;;;;;;22.82;9.83;;;;;;;3.42;88.42;99886.41;1639039;86;21825;-78
2022/11/26 01:16:47;;;;;;;23.85;10.00;;;;;;;3.44;88.30;99884.73;1657903;85;21032;-77
2022/11/26 01:19:16;;;;;;;24.27;9.80;;;;;;;3.45;88.07;99881.76;1639709;86;21066;-78
2022/11/26 01:21:43;;;;;;;23.35;10.25;;;;;;;3.47;87.90;99890.36;1639473;86;21051;-78
2022/11/26 01:24:11;;;;;;;24.07;9.98;;;;;;;3.49;87.89;99888.68;1638354;86;21209;-76
2022/11/26 01:26:43;;;;;;;27.98;11.97;;;;;;;3.48;87.68;99889.11;1638379;86;21039;-78
2022/11/26 01:29:19;;;;;;;23.73;10.63;;;;;;;3.45;87.44;99881.33;1639328;86;20992;-77
2022/11/26 01:31:47;;;;;;;26.17;11.40;;;;;;;3.44;87.69;99880.02;1636997;86;21082;-79
2022/11/26 01:34:14;;;;;;;26.17;11.30;;;;;;;3.44;87.67;99887.72;1638063;86;21126;-78
2022/11/26 01:36:43;;;;;;;24.30;11.85;;;;;;;3.47;87.72;99886.08;1638537;86;21066;-78
2022/11/26 01:39:18;;;;;;;25.90;10.53;;;;;;;3.46;87.64;99884.36;1638574;86;21031;-78
2022/11/26 01:42:24;;;;;;;29.77;11.80;;;;;;;3.46;87.68;99882.19;1640855;86;21087;-77
2022/11/26 01:44:52;;;;;;;29.18;10.55;;;;;;;3.45;87.77;99877.47;1639943;86;21630;-77
2022/11/26 01:47:27;;;;;;;28.83;10.90;;;;;;;3.52;88.33;99875.46;1640031;86;21496;-77
2022/11/26 01:50:31;;;;;;;23.70;10.78;;;;;;;3.60;88.50;99874.27;1643405;85;21618;-79
2022/11/26 01:53:04;;;;;;;22.40;10.25;;;;;;;3.62;88.14;99873.01;1634895;86;21068;-77
2022/11/26 01:55:45;;;;;;;24.43;9.75;;;;;;;3.66;87.97;99871.81;1639459;86;21031;-78
2022/11/26 01:58:18;;;;;;;22.58;9.18;;;;;;;3.73;88.02;99868.48;1629206;86;21602;-77
2022/11/26 02:00:48;;;;;;;25.52;9.45;;;;;;;3.79;88.10;99862.56;1638273;86;21630;-78
2022/11/26 02:03:17;;;;;;;21.80;9.43;;;;;;;3.85;87.88;99865.66;1639742;86;21130;-77
2022/11/26 02:05:56;;;;;;;18.50;9.25;;;;;;;3.88;87.75;99865.28;1639089;86;21055;-78
2022/11/26 02:08:26;;;;;;;21.60;9.23;;;;;;;3.91;87.33;99860.59;1652957;85;21075;-77
2022/11/26 02:10:54;;;;;;;24.55;8.98;;;;;;;3.94;87.14;99864.51;1659490;85;20984;-78
2022/11/26 02:13:22;;;;;;;18.17;8.58;;;;;;;3.93;86.79;99857.19;1659859;85;20991;-78
2022/11/26 02:16:04;;;;;;;16.82;8.00;;;;;;;3.93;86.62;99852.47;1659003;85;21012;-78
2022/11/26 02:18:36;;;;;;;18.05;7.92;;;;;;;3.86;86.51;99848.07;1627883;85;21071;-78
2022/11/26 02:21:08;;;;;;;19.50;7.25;;;;;;;3.84;86.76;99855.79;1658780;85;21027;-77
2022/11/26 02:23:49;;;;;;;21.48;9.18;;;;;;;3.84;86.76;99855.79;1659546;85;21078;-78
2022/11/26 02:26:43;;;;;;;21.33;8.40;;;;;;;3.85;86.81;99856.22;1645032;85;21947;-77
2022/11/26 02:29:43;;;;;;;20.60;9.00;;;;;;;3.84;86.61;99858.77;1659490;85;21393;-77
2022/11/26 02:32:21;;;;;;;18.67;8.13;;;;;;;3.76;86.52;99854.39;1659616;85;21019;-78
2022/11/26 02:35:03;;;;;;;20.10;8.03;;;;;;;3.79;86.42;99852.27;1659208;85;21535;-77
2022/11/26 02:37:47;;;;;;;17.92;7.25;;;;;;;3.77;86.41;99857.39;1658204;85;21019;-78
2022/11/26 02:40:15;;;;;;;20.97;9.08;;;;;;;3.76;86.47;99853.11;1658232;85;21078;-77
2022/11/26 02:42:43;;;;;;;20.48;9.10;;;;;;;3.80;86.69;99857.88;1657903;85;21090;-77
2022/11/26 02:45:24;;;;;;;20.35;8.60;;;;;;;3.79;86.62;99864.70;1658397;85;21007;-77
2022/11/26 02:47:58;;;;;;;16.30;7.95;;;;;;;3.80;86.55;99861.73;1658027;85;21102;-78
2022/11/26 02:50:34;;;;;;;19.85;8.75;;;;;;;3.85;86.57;99864.37;1659598;85;21075;-78
2022/11/26 02:53:04;;;;;;;18.40;8.33;;;;;;;3.88;86.47;99863.11;1658164;85;21082;-77
2022/11/26 02:55:37;;;;;;;19.35;8.33;;;;;;;3.84;86.14;99863.91;1659366;85;21043;-78
2022/11/26 02:58:06;;;;;;;20.72;7.85;;;;;;;3.82;85.99;99867.77;1658468;85;21047;-78
2022/11/26 03:00:37;;;;;;;24.20;10.00;;;;;;;3.74;85.82;99875.37;1656539;85;21011;-78
2022/11/26 03:03:25;;;;;;;23.52;10.58;;;;;;;3.74;85.86;99879.63;1659587;85;21003;-78
2022/11/26 03:06:01;;;;;;;24.35;9.43;;;;;;;3.76;85.97;99874.97;1656466;85;21055;-77
2022/11/26 03:08:31;;;;;;;22.35;8.63;;;;;;;3.76;85.82;99876.25;1656681;85;21070;-78
2022/11/26 03:10:58;;;;;;;20.68;8.80;;;;;;;3.67;85.52;99881.67;1657339;85;21109;-78
2022/11/26 03:13:26;;;;;;;19.00;8.28;;;;;;;3.59;85.63;99885.41;1657428;85;21042;-78
2022/11/26 03:15:54;;;;;;;19.65;9.45;;;;;;;3.55;85.92;99884.92;1637259;86;21046;-78
2022/11/26 03:18:21;;;;;;;24.60;10.15;;;;;;;3.54;86.09;99887.03;1657432;85;21039;-77
2022/11/26 03:20:49;;;;;;;22.42;10.48;;;;;;;3.54;86.14;99894.34;1658219;85;21079;-77
2022/11/26 03:23:16;;;;;;;30.65;11.80;;;;;;;3.54;86.45;99898.20;1658524;85;21359;-78
2022/11/26 03:25:44;;;;;;;29.30;12.47;;;;;;;3.52;86.87;99898.99;1657964;85;21406;-77
2022/11/26 03:28:11;;;;;;;27.25;10.85;;;;;;;3.57;87.02;99902.52;1658403;85;21055;-78
2022/11/26 03:30:39;;;;;;;23.75;11.00;;;;;;;3.54;86.94;99902.45;1657928;85;21050;-77
2022/11/26 03:33:06;;;;;;;30.52;12.63;;;;;;;3.57;86.84;99898.66;1658538;85;21071;-77
2022/11/26 03:35:34;;;;;;;29.15;10.32;;;;;;;3.57;87.37;99902.09;1657654;85;21511;-77
2022/11/26 03:38:01;;;;;;;31.82;11.45;;;;;;;3.59;86.90;99902.98;1658570;85;22250;-77
2022/11/26 03:40:28;;;;;;;24.30;10.60;;;;;;;3.58;87.15;99905.52;1643076;85;21594;-78
2022/11/26 03:42:56;;;;;;;26.17;10.25;;;;;;;3.62;87.17;99901.30;1658307;85;21047;-78
2022/11/26 03:45:23;;;;;;;26.90;11.08;;;;;;;3.65;87.22;99904.78;1657384;85;21094;-78
2022/11/26 03:47:50;;;;;;;24.02;9.35;;;;;;;3.62;87.25;99904.76;1656724;85;21007;-78
2022/11/26 03:50:18;;;;;;;19.52;8.55;;;;;;;3.66;87.39;99916.82;1657348;85;21126;-78
2022/11/26 03:52:45;;;;;;;25.50;9.65;;;;;;;3.70;87.62;99917.70;1657741;85;21083;-77
2022/11/26 03:55:13;;;;;;;19.37;8.60;;;;;;;3.70;87.08;99922.45;1657493;85;21067;-77
2022/11/26 03:57:40;;;;;;;18.67;8.05;;;;;;;3.66;86.82;99923.64;1657626;85;21344;-77
2022/11/26 04:00:09;;;;;;;17.40;7.65;;;;;;;3.65;86.88;99929.22;1657761;85;21063;-77
2022/11/26 04:02:37;;;;;;;19.75;7.87;;;;;;;3.67;87.05;99934.39;1657785;85;21062;-78
2022/11/26 04:05:05;;;;;;;19.75;8.10;;;;;;;3.68;86.90;99934.42;1657629;85;21670;-78
2022/11/26 04:07:33;;;;;;;14.87;7.33;;;;;;;3.69;87.11;99937.42;1658411;85;21039;-78
2022/11/26 04:10:00;;;;;;;20.82;8.18;;;;;;;3.72;87.01;99941.34;1665105;85;21055;-78
2022/11/26 04:12:28;;;;;;;20.55;8.68;;;;;;;3.75;86.98;99942.66;1665095;85;21046;-78
2022/11/26 04:14:55;;;;;;;17.60;7.95;;;;;;;3.75;86.79;99949.52;1665727;84;21086;-78
2022/11/26 04:17:23;;;;;;;20.77;8.95;;;;;;;3.73;86.54;99950.78;1665124;84;21133;-79
2022/11/26 04:19:51;;;;;;;20.45;8.55;;;;;;;3.69;86.35;99950.28;1665708;85;21047;-79
2022/11/26 04:22:18;;;;;;;20.82;8.75;;;;;;;3.63;86.44;99948.90;1678535;84;21050;-78
2022/11/26 04:24:46;;;;;;;18.80;8.03;;;;;;;3.58;86.46;99942.41;1665800;84;21657;-78
2022/11/26 04:27:13;;;;;;;20.02;8.43;;;;;;;3.64;86.47;99945.50;1664617;85;22030;-78
2022/11/26 04:29:40;;;;;;;18.82;7.83;;;;;;;3.68;86.65;99948.97;1665679;84;21086;-79
2022/11/26 04:32:08;;;;;;;17.67;7.55;;;;;;;3.73;86.77;99953.78;1665625;85;21039;-78
2022/11/26 04:34:35;;;;;;;23.57;9.18;;;;;;;3.76;86.70;99951.23;1665526;85;21054;-78
2022/11/26 04:37:03;;;;;;;19.17;7.60;;;;;;;3.76;86.51;99952.12;1665649;84;21078;-78
2022/11/26 04:39:30;;;;;;;22.32;8.88;;;;;;;3.76;86.35;99954.70;1665276;84;21023;-78
2022/11/26 04:41:58;;;;;;;19.23;7.30;;;;;;;3.76;86.29;99955.09;1665506;84;21110;-77
2022/11/26 04:44:26;;;;;;;20.27;8.00;;;;;;;3.74;86.16;99958.06;1665233;85;21018;-79
2022/11/26 04:46:53;;;;;;;20.02;8.05;;;;;;;3.66;86.42;99961.83;1665374;84;21915;-77
2022/11/26 04:49:20;;;;;;;18.15;8.45;;;;;;;3.66;86.49;99973.39;1664893;85;21094;-78
2022/11/26 04:51:48;;;;;;;15.50;7.53;;;;;;;3.63;86.37;99966.90;1665409;84;21518;-78
2022/11/26 04:54:15;;;;;;;16.95;7.22;;;;;;;3.62;86.27;99966.87;1664847;84;21614;-78
2022/11/26 04:56:43;;;;;;;19.82;9.10;;;;;;;3.56;86.28;99968.91;1665478;85;21022;-78
2022/11/26 04:59:10;;;;;;;18.92;9.08;;;;;;;3.49;86.28;99970.95;1665058;84;21678;-80
2022/11/26 05:01:37;;;;;;;20.65;9.28;;;;;;;3.47;86.65;99979.05;1656068;84;21049;-78
2022/11/26 05:04:05;;;;;;;19.02;8.13;;;;;;;3.46;86.52;99970.87;1666481;85;22002;-77
2022/11/26 05:06:32;;;;;;;20.72;9.03;;;;;;;3.41;86.62;99973.80;1666385;86;22172;-79
2022/11/26 05:09:00;;;;;;;21.93;9.10;;;;;;;3.39;86.75;99978.91;1661377;86;21613;-78
2022/11/26 05:11:28;;;;;;;19.98;8.93;;;;;;;3.34;86.85;99977.95;1658807;86;21090;-78
2022/11/26 05:13:55;;;;;;;21.23;9.43;;;;;;;3.39;87.23;99982.77;1658779;85;21572;-78
2022/11/26 05:16:23;;;;;;;21.73;9.50;;;;;;;3.36;87.02;99982.30;1658730;86;21965;-78
2022/11/26 05:18:50;;;;;;;24.27;9.65;;;;;;;3.37;87.34;99984.02;1658650;86;21693;-78
2022/11/26 05:21:19;;;;;;;22.35;9.08;;;;;;;3.42;87.65;99981.52;1658357;86;21874;-78
2022/11/26 05:23:46;;;;;;;25.95;10.08;;;;;;;3.46;87.62;99987.19;1658330;86;21105;-78
2022/11/26 05:26:14;;;;;;;18.95;9.28;;;;;;;3.51;87.79;99990.70;1658778;86;21057;-77
2022/11/26 05:28:41;;;;;;;23.40;10.30;;;;;;;3.52;87.64;99983.84;1658679;86;21073;-78
2022/11/26 05:31:09;;;;;;;20.77;9.65;;;;;;;3.54;87.77;99984.73;1658713;86;21018;-77
2022/11/26 05:33:37;;;;;;;25.65;11.10;;;;;;;3.57;87.74;99978.37;1658631;86;21355;-78
2022/11/26 05:36:05;;;;;;;26.85;12.90;;;;;;;3.59;87.81;99972.83;1658718;86;21073;-78
2022/11/26 05:38:32;;;;;;;29.70;10.65;;;;;;;3.55;87.61;99978.77;1658634;86;21371;-78
2022/11/26 05:41:00;;;;;;;29.85;10.80;;;;;;;3.50;87.88;99986.80;1658591;85;21061;-78
2022/11/26 05:43:27;;;;;;;30.55;10.93;;;;;;;3.46;88.29;99988.88;1658608;85;21077;-77
2022/11/26 05:45:55;;;;;;;36.08;11.15;;;;;;;3.41;89.08;99988.80;1658672;86;21070;-78
2022/11/26 05:48:22;;;;;;;33.28;11.22;;;;;;;3.33;88.41;99992.52;1662630;85;21579;-78
2022/11/26 05:50:57;;;;;;;30.72;11.22;;;;;;;3.31;88.42;99994.19;1658686;85;21563;-79
2022/11/26 05:53:25;;;;;;;28.83;11.15;;;;;;;3.13;88.91;99993.84;1659993;86;21068;-78
2022/11/26 05:55:52;;;;;;;27.35;10.20;;;;;;;3.07;89.20;100002.72;1659963;85;21056;-77
2022/11/26 05:58:20;;;;;;;27.98;10.78;;;;;;;3.08;89.18;100007.02;1659951;85;21040;-77
2022/11/26 06:00:47;;;;;;;24.60;10.23;;;;;;;2.96;89.83;100005.95;1659906;86;21065;-77
2022/11/26 06:03:15;;;;;;;30.97;10.28;;;;;;;2.94;90.28;100014.44;1659992;86;21023;-77
2022/11/26 06:05:42;;;;;;;26.42;9.83;;;;;;;2.86;90.58;100016.84;1658732;86;21059;-78
2022/11/26 06:08:10;;;;;;;33.92;11.70;;;;;;;2.85;90.42;100026.69;1665899;85;21014;-77
2022/11/26 06:10:37;;;;;;;27.13;9.98;;;;;;;2.86;90.10;100024.55;1633444;87;21090;-77
2022/11/26 06:13:05;;;;;;;27.10;10.98;;;;;;;2.84;91.04;100026.22;1625495;88;21086;-78
2022/11/26 06:15:32;;;;;;;27.02;9.95;;;;;;;2.80;91.13;100025.70;1655899;86;21020;-77
2022/11/26 06:17:59;;;;;;;26.42;8.88;;;;;;;2.79;91.02;100027.42;1655905;86;21032;-78
2022/11/26 06:20:27;;;;;;;27.10;9.65;;;;;;;2.78;90.79;100026.09;1655855;87;20988;-78
2022/11/26 06:22:54;;;;;;;28.85;10.08;;;;;;;2.78;90.90;100038.94;1655831;85;21096;-78
2022/11/26 06:25:22;;;;;;;25.88;10.38;;;;;;;2.82;90.73;100049.72;1655770;86;21040;-78
2022/11/26 06:27:51;;;;;;;26.40;8.63;;;;;;;2.83;90.96;100046.33;1655775;86;21080;-77
2022/11/26 06:30:18;;;;;;;26.42;9.13;;;;;;;2.84;90.82;100054.47;1655938;87;21012;-78
2022/11/26 06:32:47;;;;;;;30.62;10.93;;;;;;;2.88;91.09;100061.83;1654622;86;21099;-77
2022/11/26 06:35:15;;;;;;;27.98;10.78;;;;;;;2.88;91.05;100061.41;1655859;86;20988;-78
2022/11/26 06:37:42;;;;;;;29.25;9.80;;;;;;;2.89;91.12;100062.30;1655857;85;21040;-78
2022/11/26 06:40:17;;;;;;;28.40;10.25;;;;;;;2.87;91.26;100063.54;1655961;87;21044;-78
2022/11/26 06:42:51;;;;;;;24.27;8.73;;;;;;;2.85;90.95;100072.92;1655826;87;21044;-78
2022/11/26 06:45:21;;;;;;;31.05;9.83;;;;;;;2.87;91.07;100077.67;1663058;85;21003;-78
2022/11/26 06:47:51;;;;;;;29.45;10.03;;;;;;;2.86;91.40;100084.91;1634951;88;21011;-78
2022/11/26 06:50:21;;;;;;;35.83;11.12;;;;;;;2.89;90.82;100087.55;1642596;87;21012;-78
2022/11/26 06:52:53;;;;;;;28.77;11.45;;;;;;;2.85;91.14;100090.03;1629022;87;20976;-78
2022/11/26 06:55:20;;;;;;;31.05;11.43;;;;;;;2.91;90.93;100094.87;1623718;86;21012;-78
2022/11/26 06:57:51;;;;;;;34.45;10.50;;;;;;;2.94;90.75;100100.06;1621832;87;21069;-79
2022/11/26 07:00:20;;;;;;;26.17;11.00;;;;;;;2.92;91.43;100099.59;1624815;87;21084;-78
2022/11/26 07:02:48;;;;;;;29.00;11.83;;;;;;;2.99;90.85;100101.05;1622228;87;21527;-78
2022/11/26 07:05:16;;;;;;;37.00;12.65;;;;;;;2.94;91.10;100111.63;1614110;87;21195;-77
2022/11/26 07:07:43;;;;;;;32.23;11.00;;;;;;;2.97;90.65;100109.56;1627444;87;21325;-79
2022/11/26 07:10:11;;;;;;;26.87;11.28;;;;;;;2.93;90.76;100109.05;1644695;85;21075;-78
2022/11/26 07:12:38;;;;;;;33.25;10.93;;;;;;;2.96;90.71;100112.55;1658832;85;21022;-78
2022/11/26 07:15:08;;;;;;;28.75;9.88;;;;;;;2.99;90.65;100106.19;1652357;85;21550;-78
2022/11/26 07:17:35;;;;;;;30.17;10.05;;;;;;;3.06;90.78;100117.88;1653340;85;20975;-77
2022/11/26 07:20:04;;;;;;;30.88;9.73;;;;;;;3.12;90.54;100116.33;1653635;85;21003;-78
2022/11/26 07:22:34;;;;;;;24.18;9.00;;;;;;;3.22;90.66;100119.92;1656056;85;21078;-78
2022/11/26 07:25:02;;;;;;;23.85;9.33;;;;;;;3.29;89.96;100125.66;1657468;85;21150;-77
2022/11/26 07:27:29;;;;;;;24.65;9.30;;;;;;;3.29;89.37;100124.38;1654318;85;21578;-78
2022/11/26 07:29:57;;;;;;;25.32;9.28;;;;;;;3.37;89.67;100126.68;1653943;85;21591;-78
2022/11/26 07:32:25;;;;;;;22.73;9.03;;;;;;;3.43;89.80;100126.37;1654504;85;21034;-77
2022/11/26 07:34:52;;;;;;;27.15;10.55;;;;;;;3.45;89.62;100139.69;1658806;85;21062;-78
2022/11/26 07:37:20;;;;;;;32.20;12.98;;;;;;;3.48;89.56;100139.77;1654308;85;21046;-78
2022/11/26 07:39:48;;;;;;;24.27;9.43;;;;;;;3.54;89.34;100145.43;1658316;85;21054;-78
2022/11/26 07:42:15;;;;;;;17.98;8.50;;;;;;;3.55;88.60;100148.47;1653550;85;21087;-78
2022/11/26 07:44:43;;;;;;;21.30;8.23;;;;;;;3.62;88.91;100145.59;1657677;85;21062;-78
2022/11/26 07:47:10;;;;;;;20.32;8.35;;;;;;;3.64;88.19;100149.05;1652950;85;21332;-78
2022/11/26 07:49:38;;;;;;;27.90;11.53;;;;;;;3.64;88.65;100155.09;1661935;85;21558;-78
2022/11/26 07:52:05;;;;;;;25.55;10.25;;;;;;;3.66;88.54;100160.23;1653437;85;21633;-79
2022/11/26 07:54:33;;;;;;;26.50;9.55;;;;;;;3.69;88.33;100163.75;1656826;85;21526;-79
2022/11/26 07:57:00;;;;;;;26.45;9.60;;;;;;;3.75;88.71;100165.58;1654103;85;21352;-78
2022/11/26 07:59:28;;;;;;;25.52;8.95;;;;;;;3.78;88.83;100165.22;1657408;85;21197;-78
2022/11/26 08:01:55;;;;;;;23.40;8.70;;;;;;;3.83;88.92;100169.59;1653015;85;21087;-79
2022/11/26 08:04:23;;;;;;;21.35;7.95;;;;;;;3.86;88.42;100176.95;1656103;85;21078;-78
2022/11/26 08:06:50;;;;;;;25.75;9.15;;;;;;;3.92;88.46;100176.17;1657734;85;21839;-79
2022/11/26 08:09:18;;;;;;;20.25;8.05;;;;;;;3.90;88.60;100176.56;1660129;85;21118;-79
2022/11/26 08:11:45;;;;;;;17.77;8.28;;;;;;;3.91;88.35;100170.59;1662655;85;21586;-78
2022/11/26 08:14:13;;;;;;;19.50;7.87;;;;;;;3.95;88.41;100174.53;1663745;85;21014;-78
2022/11/26 08:16:41;;;;;;;20.35;8.25;;;;;;;4.03;88.37;100184.12;1665097;84;21073;-78
2022/11/26 08:19:12;;;;;;;18.32;8.38;;;;;;;4.08;88.27;100178.62;1664201;85;21026;-78
2022/11/26 08:21:40;;;;;;;26.30;8.95;;;;;;;4.00;87.80;100170.78;1664483;84;21039;-78
2022/11/26 08:24:15;;;;;;;20.10;8.80;;;;;;;3.99;87.38;100175.47;1663956;85;21086;-78
2022/11/26 08:26:43;;;;;;;17.05;8.05;;;;;;;4.02;87.57;100181.08;1661341;85;21087;-78
2022/11/26 08:29:12;;;;;;;19.20;8.48;;;;;;;4.09;87.56;100184.23;1666022;85;21134;-79
2022/11/26 08:31:41;;;;;;;24.35;9.93;;;;;;;4.13;87.44;100180.44;1666352;84;21482;-78
2022/11/26 08:34:14;;;;;;;20.48;8.20;;;;;;;4.19;87.85;100177.98;1665865;84;21026;-79
2022/11/26 08:36:43;;;;;;;20.48;8.78;;;;;;;4.12;86.72;100182.59;1664967;84;21050;-77
2022/11/26 08:39:17;;;;;;;23.10;8.35;;;;;;;4.12;86.55;100181.73;1663965;85;21011;-78
2022/11/26 08:41:45;;;;;;;25.27;9.43;;;;;;;4.12;86.51;100183.88;1664200;85;21022;-78
2022/11/26 08:44:12;;;;;;;19.67;8.05;;;;;;;4.23;86.94;100182.77;1663742;84;21070;-77
2022/11/26 08:46:41;;;;;;;20.00;7.40;;;;;;;4.22;86.57;100191.34;1664022;85;21114;-79
2022/11/26 08:49:12;;;;;;;26.45;9.30;;;;;;;4.26;87.18;100200.86;1663447;85;21050;-78
2022/11/26 08:51:40;;;;;;;25.60;8.78;;;;;;;4.18;86.59;100190.84;1663529;85;21043;-78
2022/11/26 08:54:08;;;;;;;22.80;8.38;;;;;;;4.22;86.95;100196.89;1663174;85;21554;-78
2022/11/26 08:56:36;;;;;;;21.10;8.23;;;;;;;4.27;86.47;100190.13;1662815;85;21046;-78
2022/11/26 08:59:03;;;;;;;19.27;7.83;;;;;;;4.30;86.35;100193.63;1664653;84;21102;-78
2022/11/26 09:01:32;;;;;;;20.80;8.33;;;;;;;4.32;85.96;100194.95;1662081;85;21046;-78
2022/11/26 09:04:02;;;;;;;17.35;7.28;;;;;;;4.40;86.37;100188.23;1664855;85;21026;-78
2022/11/26 09:06:32;;;;;;;20.20;7.30;;;;;;;4.42;86.32;100192.98;1662968;84;21475;-78
2022/11/26 09:09:12;;;;;;;15.53;6.75;;;;;;;4.44;85.53;100196.87;1665181;85;20983;-78
2022/11/26 09:11:52;;;;;;;18.27;6.58;;;;;;;4.54;85.81;100201.34;1652899;85;20973;-78
2022/11/26 09:14:26;;;;;;;18.37;6.15;;;;;;;4.58;85.85;100201.41;1657159;85;21919;-78
2022/11/26 09:16:55;;;;;;;;;;;;;;;4.56;85.32;100199.23;1641576;85;21074;-78
2022/11/26 09:19:23;;;;;;;16.10;5.85;;;;;;;4.59;85.53;100198.41;1655128;85;20153;-79
2022/11/26 09:21:51;;;;;;;17.90;7.20;;;;;;;4.72;85.77;100205.94;1651011;85;21067;-78
2022/11/26 09:24:20;;;;;;;21.42;6.95;;;;;;;4.68;85.05;100197.71;1657660;85;21565;-78
2022/11/26 09:26:48;;;;;;;17.35;6.83;;;;;;;4.61;85.24;100203.16;1651356;85;21074;-79
2022/11/26 09:29:20;;;;;;;16.87;7.15;;;;;;;4.59;85.07;100199.70;1656144;85;21038;-78
2022/11/26 09:31:48;;;;;;;19.00;7.85;;;;;;;4.57;85.34;100204.81;1651712;85;21075;-78
2022/11/26 09:34:16;;;;;;;20.37;7.90;;;;;;;4.63;85.32;100203.19;1655910;85;20971;-78
2022/11/26 09:36:44;;;;;;;20.05;6.90;;;;;;;4.65;85.45;100204.94;1652302;85;21039;-78
2022/11/26 09:39:13;;;;;;;23.52;8.65;;;;;;;4.67;85.68;100202.41;1654752;85;21046;-78
2022/11/26 09:41:58;;;;;;;18.23;6.60;;;;;;;4.70;85.18;100203.75;1659295;85;21019;-78
2022/11/26 09:44:33;;;;;;;18.45;7.87;;;;;;;4.70;84.61;100211.05;1656215;85;21004;-78
2022/11/26 09:47:06;;;;;;;16.45;7.47;;;;;;;4.72;84.67;100201.64;1653414;85;21028;-78
2022/11/26 09:49:39;;;;;;;20.60;6.62;;;;;;;4.67;84.89;100199.39;1656014;85;21023;-78
2022/11/26 09:52:08;;;;;;;15.13;6.93;;;;;;;4.67;84.09;100203.69;1661580;85;21762;-78
2022/11/26 09:54:37;;;;;;;25.90;7.58;;;;;;;4.68;84.72;100206.30;1674303;85;21031;-78
2022/11/26 09:57:29;;;;;;;16.40;6.35;;;;;;;4.65;84.69;100212.67;1651709;85;21003;-78
2022/11/26 09:59:56;;;;;;;16.57;7.00;;;;;;;4.70;84.71;100214.92;1644073;85;21030;-78
2022/11/26 10:02:25;;;;;;;15.98;6.95;;;;;;;4.70;85.05;100216.20;1659101;85;21034;-78
2022/11/26 10:04:53;;;;;;;19.40;6.90;;;;;;;4.77;84.96;100214.59;1659686;85;20988;-78
2022/11/26 10:07:50;;;;;;;17.00;7.20;;;;;;;4.82;84.56;100220.70;1658608;85;20995;-79
2022/11/26 10:10:44;;;;;;;19.87;7.05;;;;;;;4.82;84.29;100219.84;1643306;85;21035;-78
2022/11/26 10:13:15;;;;;;;;;;;;;;;4.89;84.39;100231.53;1632347;85;21031;-78
2022/11/26 10:16:16;;;;;;;19.27;7.80;;;;;;;4.88;83.78;100225.94;1654731;85;20129;-78
2022/11/26 10:19:07;;;;;;;19.50;7.90;;;;;;;4.91;84.07;100225.12;1651414;85;20952;-79
2022/11/26 10:21:48;;;;;;;18.07;7.28;;;;;;;4.82;84.52;100221.98;1656074;85;21034;-77
2022/11/26 10:24:40;;;;;;;20.57;7.65;;;;;;;4.85;84.25;100219.87;1654629;85;20999;-78
2022/11/26 10:27:17;;;;;;;28.98;7.90;;;;;;;4.87;84.30;100219.47;1658098;85;20995;-78
2022/11/26 10:30:02;;;;;;;24.43;9.00;;;;;;;4.93;84.50;100216.98;1654147;85;20980;-78
2022/11/26 10:32:37;;;;;;;22.55;8.10;;;;;;;4.94;84.83;100220.02;1652185;85;21023;-78
2022/11/26 10:35:05;;;;;;;19.75;7.58;;;;;;;4.97;84.40;100211.92;1652087;85;20984;-78
2022/11/26 10:37:33;;;;;;;19.10;8.30;;;;;;;4.95;83.88;100211.04;1656560;85;21051;-78
2022/11/26 10:40:26;;;;;;;19.92;7.47;;;;;;;5.00;83.88;100213.67;1654059;85;20999;-78
2022/11/26 10:43:14;;;;;;;18.10;7.33;;;;;;;4.94;83.91;100206.71;1656308;85;21076;-78
2022/11/26 10:45:49;;;;;;;23.27;9.28;;;;;;;4.88;84.01;100201.47;1638650;85;21008;-77
2022/11/26 10:48:26;;;;;;;24.37;9.55;;;;;;;4.93;84.35;100201.52;1657970;85;20999;-78
2022/11/26 10:51:18;;;;;;;25.95;9.60;;;;;;;4.97;84.62;100201.62;1657228;85;21015;-77
2022/11/26 10:53:53;;;;;;;30.40;10.80;;;;;;;5.04;84.31;100209.02;1658228;85;21011;-78
2022/11/26 10:56:44;;;;;;;20.80;9.48;;;;;;;5.03;84.10;100208.55;1659218;85;21020;-77
2022/11/26 10:59:35;;;;;;;26.73;10.58;;;;;;;5.12;84.35;100202.69;1658346;85;21522;-78
2022/11/26 11:02:20;;;;;;;22.02;9.83;;;;;;;5.03;84.29;100200.82;1652118;85;21035;-78
2022/11/26 11:04:52;;;;;;;25.10;9.95;;;;;;;5.04;83.77;100205.14;1658372;85;20971;-78
2022/11/26 11:07:40;;;;;;;33.40;12.03;;;;;;;5.02;84.46;100197.81;1655451;85;20984;-78
2022/11/26 11:10:13;;;;;;;28.00;11.80;;;;;;;5.06;84.58;100199.59;1657058;85;21566;-78
2022/11/26 11:12:48;;;;;;;28.02;11.70;;;;;;;5.12;84.64;100194.52;1654768;85;21504;-78
2022/11/26 11:15:29;;;;;;;29.10;11.08;;;;;;;5.16;84.20;100188.56;1657680;85;21099;-78
2022/11/26 11:18:19;;;;;;;24.72;9.90;;;;;;;5.24;84.41;100196.84;1653727;85;21046;-78
2022/11/26 11:20:56;;;;;;;25.60;10.43;;;;;;;5.28;84.38;100194.31;1656844;85;21062;-78
2022/11/26 11:23:27;;;;;;;26.17;9.33;;;;;;;5.30;84.05;100196.92;1654322;85;20996;-78
2022/11/26 11:26:09;;;;;;;24.47;10.60;;;;;;;5.36;84.18;100195.28;1655686;85;21007;-77
2022/11/26 11:28:41;;;;;;;24.95;9.83;;;;;;;5.36;84.38;100194.00;1650264;85;21065;-78
2022/11/26 11:31:15;;;;;;;24.75;9.83;;;;;;;5.34;84.03;100194.41;1654207;85;21023;-78
2022/11/26 11:33:43;;;;;;;31.07;11.88;;;;;;;5.41;84.04;100203.08;1652613;85;20964;-77
2022/11/26 11:36:27;;;;;;;23.30;10.88;;;;;;;5.40;84.05;100196.63;1656404;85;21023;-78
2022/11/26 11:39:00;;;;;;;24.05;9.93;;;;;;;5.45;84.32;100186.83;1638720;85;21020;-78
2022/11/26 11:41:44;;;;;;;27.15;10.38;;;;;;;5.43;83.94;100185.05;1658888;85;21055;-78
2022/11/26 11:44:26;;;;;;;35.68;9.98;;;;;;;5.46;84.13;100188.55;1640355;85;20948;-78
2022/11/26 11:47:23;;;;;;;26.73;11.55;;;;;;;5.47;84.09;100192.87;1654317;85;21027;-77